KIER Airport (Natchitoches Rgnl) Information

FAA: IER - ICAO: KIER

KIER Airport Location

State Louisiana
County Natchitoches
City Natchitoches
KIER Airport is 2 miles south of Natchitoches, LA.
Latitude 31-44-08.5920N
Longitude 093-05-56.8910W
Elevation 121ft

KIER Airport METARs

METAR KIER 240855Z AUTO 00000KT 7SM CLR 13/13 A3008 RMK AO2 T01260125
Altimeter 30.08"
Temperature 12.6°C (54.7°F)
Wind 0° at 0KT
Clouds Skies are clear.
Visibility 7.0mi
Time observed: 2021-09-24T08:55:00Z

KIER Airport Details

Status Operational
Activation April 1940
Ownership Public
Usage Public
Chart HOUSTON
ATC on-site No
Beacon schedule sunset-sunrise
Beacon color clear green

KIER Airport Contacts

Owner CITY OF NATCHITOCHES
Owner address PO BOX 37, NATCHITOCHES, LA 71457
Owner phone 318-352-0994
Manager ST FRANCIS MEDICAL CENTER
Manager address 309 JACKSON STREET, MONROE, LA 71201
Manager phone 318-966-4945

KIER Airport (Natchitoches Rgnl) Radio Frequencies

KIER (Airport) Radio Frequencies

UNICOM 122.8
Common traffic advisory frequency (CTAF) 122.8